createdAt,value
2023-03-15T00:00:24.998Z,9.45
2023-03-15T00:02:52.058Z,9.68
2023-03-15T00:05:19.286Z,9.68
2023-03-15T00:07:46.358Z,8.50
2023-03-15T00:10:14.047Z,12.02
2023-03-15T00:12:45.950Z,7.93
2023-03-15T00:15:15.906Z,10.85
2023-03-15T00:17:43.109Z,10.15
2023-03-15T00:20:11.267Z,11.00
2023-03-15T00:22:38.696Z,13.52
2023-03-15T00:25:06.243Z,10.85
2023-03-15T00:27:33.340Z,13.32
2023-03-15T00:30:00.545Z,10.43
2023-03-15T00:32:27.623Z,13.20
2023-03-15T00:34:55.020Z,15.60
2023-03-15T00:37:22.069Z,16.52
2023-03-15T00:39:49.239Z,14.50
2023-03-15T00:42:16.239Z,14.73
2023-03-15T00:44:47.302Z,14.80
2023-03-15T00:47:15.070Z,11.32
2023-03-15T00:49:42.115Z,19.30
2023-03-15T00:52:09.279Z,11.30
2023-03-15T00:54:36.533Z,14.88
2023-03-15T00:57:03.986Z,12.57
2023-03-15T00:59:35.113Z,11.88
2023-03-15T01:02:03.412Z,12.93
2023-03-15T01:04:31.666Z,10.55
2023-03-15T01:06:59.336Z,9.60
2023-03-15T01:09:26.442Z,20.27
2023-03-15T01:11:53.441Z,9.73
2023-03-15T01:14:20.626Z,11.18
2023-03-15T01:16:47.697Z,11.65
2023-03-15T01:19:14.768Z,10.85
2023-03-15T01:21:41.937Z,16.10
2023-03-15T01:24:13.489Z,15.90
2023-03-15T01:26:41.104Z,11.98
2023-03-15T01:29:08.370Z,10.57
2023-03-15T01:31:35.622Z,18.02
2023-03-15T01:34:02.837Z,12.82
2023-03-15T01:36:32.846Z,14.48
2023-03-15T01:38:59.935Z,14.50
2023-03-15T01:41:39.083Z,15.20
2023-03-15T01:44:06.153Z,14.13
2023-03-15T01:46:36.584Z,11.52
2023-03-15T01:49:24.202Z,16.00
2023-03-15T01:52:09.598Z,9.95
2023-03-15T01:55:04.376Z,14.15
2023-03-15T01:57:37.613Z,13.75
2023-03-15T02:00:13.651Z,14.55
2023-03-15T02:02:56.032Z,11.85
2023-03-15T02:05:32.660Z,14.18
2023-03-15T02:08:03.358Z,11.20
2023-03-15T02:10:44.267Z,9.63
2023-03-15T02:13:15.895Z,15.80
2023-03-15T02:15:49.782Z,12.90
2023-03-15T02:18:25.063Z,11.18
2023-03-15T02:21:10.400Z,13.90
2023-03-15T02:23:37.506Z,8.60
2023-03-15T02:26:17.924Z,10.65
2023-03-15T02:31:13.502Z,9.25
2023-03-15T02:33:46.298Z,9.48
2023-03-15T02:36:25.107Z,7.15
2023-03-15T02:38:53.428Z,9.85
2023-03-15T02:41:39.052Z,8.93
2023-03-15T02:44:14.458Z,11.75
2023-03-15T02:46:43.231Z,6.90
2023-03-15T02:49:11.464Z,9.13
2023-03-15T02:51:38.671Z,15.35
2023-03-15T02:54:05.723Z,16.10
2023-03-15T02:56:33.719Z,12.40
2023-03-15T02:59:01.798Z,11.20
2023-03-15T03:01:29.408Z,10.32
2023-03-15T03:03:56.976Z,15.20
2023-03-15T03:06:24.776Z,11.85
2023-03-15T03:08:52.008Z,11.30
2023-03-15T03:11:20.974Z,12.68
2023-03-15T03:13:48.083Z,11.77
2023-03-15T03:16:15.125Z,14.00
2023-03-15T03:18:43.398Z,8.85
2023-03-15T03:21:10.571Z,12.65
2023-03-15T03:23:37.992Z,15.73
2023-03-15T03:26:17.082Z,12.40
2023-03-15T03:28:47.670Z,16.08
2023-03-15T03:31:25.200Z,10.07
2023-03-15T03:33:55.476Z,9.68
2023-03-15T03:36:22.656Z,8.75
2023-03-15T03:38:51.695Z,8.45
2023-03-15T03:41:18.708Z,11.93
2023-03-15T03:43:45.790Z,12.60
2023-03-15T03:46:12.994Z,14.65
2023-03-15T03:48:46.174Z,12.45
2023-03-15T03:51:13.432Z,8.13
2023-03-15T03:53:40.408Z,9.93
2023-03-15T03:56:08.862Z,10.93
2023-03-15T03:58:36.975Z,10.07
2023-03-15T04:01:12.208Z,13.63
2023-03-15T04:03:41.040Z,10.55
2023-03-15T04:06:15.077Z,13.20
2023-03-15T04:08:45.147Z,10.35
2023-03-15T04:11:17.946Z,12.27
2023-03-15T04:13:51.105Z,12.07
2023-03-15T04:16:18.223Z,14.82
2023-03-15T04:18:56.543Z,13.95
2023-03-15T04:21:24.711Z,8.38
2023-03-15T04:23:56.454Z,17.95
2023-03-15T04:26:43.452Z,8.77
2023-03-15T04:29:33.417Z,11.10
2023-03-15T04:32:20.762Z,16.55
2023-03-15T04:35:13.852Z,12.88
2023-03-15T04:38:13.356Z,12.55
2023-03-15T04:40:43.022Z,13.95
2023-03-15T04:43:30.339Z,10.57
2023-03-15T04:46:35.921Z,16.40
2023-03-15T04:49:29.225Z,10.95
2023-03-15T04:52:08.454Z,10.40
2023-03-15T04:57:48.218Z,14.00
2023-03-15T05:00:48.034Z,9.30
2023-03-15T05:03:36.945Z,8.70
2023-03-15T05:06:19.186Z,14.23
2023-03-15T05:08:49.267Z,10.82
2023-03-15T05:11:39.337Z,14.68
2023-03-15T05:14:26.664Z,18.45
2023-03-15T05:17:26.466Z,13.03
2023-03-15T05:37:10.500Z,11.90
2023-03-15T05:39:56.361Z,9.90
2023-03-15T05:42:49.611Z,11.00
2023-03-15T05:45:30.096Z,15.73
2023-03-15T05:48:05.214Z,15.32
2023-03-15T05:50:53.172Z,12.68
2023-03-15T05:53:55.457Z,11.55
2023-03-15T05:56:36.302Z,11.52
2023-03-15T05:59:22.522Z,15.68
2023-03-15T06:02:10.147Z,14.13
2023-03-15T06:04:50.818Z,12.18
2023-03-15T06:07:21.980Z,13.85
2023-03-15T06:09:49.155Z,13.25
2023-03-15T06:12:16.173Z,9.35
2023-03-15T06:14:43.563Z,17.23
2023-03-15T06:17:11.994Z,15.48
2023-03-15T06:19:42.340Z,14.73
2023-03-15T06:22:10.255Z,13.77
2023-03-15T06:24:50.870Z,14.38
2023-03-15T06:27:22.167Z,10.95
2023-03-15T06:29:50.850Z,12.40
2023-03-15T06:32:21.067Z,12.05
2023-03-15T06:34:48.293Z,12.85
2023-03-15T06:37:22.723Z,16.95
2023-03-15T06:39:56.777Z,11.00
2023-03-15T06:42:23.939Z,14.10
2023-03-15T06:44:51.330Z,12.40
2023-03-15T06:47:19.741Z,10.55
2023-03-15T06:49:50.558Z,13.20
2023-03-15T06:52:19.309Z,11.10
2023-03-15T06:54:46.509Z,14.77
2023-03-15T06:57:13.618Z,11.48
2023-03-15T06:59:40.947Z,12.60
2023-03-15T07:02:14.835Z,12.55
2023-03-15T07:04:42.031Z,14.13
2023-03-15T07:07:09.174Z,12.20
2023-03-15T07:09:36.260Z,14.85
2023-03-15T07:12:03.631Z,16.23
2023-03-15T07:14:30.782Z,11.73
2023-03-15T07:16:57.877Z,15.90
2023-03-15T07:19:25.109Z,15.15
2023-03-15T07:21:52.393Z,13.60
2023-03-15T07:24:19.744Z,13.40
2023-03-15T07:26:46.946Z,16.95
2023-03-15T07:29:14.160Z,14.85
2023-03-15T07:31:41.193Z,13.25
2023-03-15T07:34:08.361Z,11.73
2023-03-15T07:36:35.428Z,11.25
2023-03-15T07:39:02.701Z,14.52
2023-03-15T07:41:30.029Z,10.77
2023-03-15T07:44:06.468Z,14.45
2023-03-15T07:46:33.753Z,14.48
2023-03-15T07:49:00.809Z,12.32
2023-03-15T07:51:27.857Z,12.63
2023-03-15T07:53:54.981Z,11.80
2023-03-15T07:56:22.090Z,10.77
2023-03-15T07:58:49.139Z,12.57
2023-03-15T08:01:16.288Z,15.02
2023-03-15T08:03:44.011Z,14.65
2023-03-15T08:06:11.069Z,9.98
2023-03-15T08:08:38.222Z,10.50
2023-03-15T08:11:06.070Z,13.40
2023-03-15T08:13:34.118Z,15.65
2023-03-15T08:16:01.596Z,10.45
2023-03-15T08:18:31.682Z,10.32
2023-03-15T08:20:59.425Z,12.77
2023-03-15T08:23:26.499Z,11.60
2023-03-15T08:25:53.728Z,12.48
2023-03-15T08:28:20.922Z,10.55
2023-03-15T08:30:47.914Z,12.77
2023-03-15T08:33:14.949Z,12.07
2023-03-15T08:35:42.224Z,10.60
2023-03-15T08:38:09.606Z,12.32
2023-03-15T08:40:38.908Z,17.02
2023-03-15T08:43:07.070Z,12.00
2023-03-15T08:45:50.949Z,10.88
2023-03-15T08:48:21.382Z,12.73
2023-03-15T08:50:48.983Z,11.05
2023-03-15T08:53:16.217Z,13.52
2023-03-15T08:55:43.406Z,13.45
2023-03-15T08:58:13.022Z,13.48
2023-03-15T09:00:40.727Z,12.07
2023-03-15T09:03:07.822Z,15.07
2023-03-15T09:05:34.957Z,13.48
2023-03-15T09:08:02.249Z,12.93
2023-03-15T09:10:29.586Z,11.05
2023-03-15T09:12:56.889Z,13.73
2023-03-15T09:15:24.026Z,17.65
2023-03-15T09:17:51.962Z,14.68
2023-03-15T09:20:22.162Z,15.10
2023-03-15T09:25:22.303Z,12.10
2023-03-15T09:27:50.160Z,13.25
2023-03-15T09:30:17.996Z,10.63
2023-03-15T09:32:46.149Z,15.27
2023-03-15T09:35:16.709Z,16.55
2023-03-15T09:37:44.148Z,10.05
2023-03-15T09:40:35.221Z,13.23
2023-03-15T09:43:09.178Z,9.30
2023-03-15T09:45:45.582Z,12.80
2023-03-15T09:48:38.100Z,18.10
2023-03-15T09:51:35.954Z,16.60
2023-03-15T09:54:15.473Z,13.02
2023-03-15T09:57:04.953Z,12.40
2023-03-15T09:59:38.707Z,9.95
2023-03-15T10:02:25.118Z,13.63
2023-03-15T10:05:08.362Z,13.80
2023-03-15T10:07:36.182Z,16.13
2023-03-15T10:10:05.124Z,11.95
2023-03-15T10:12:41.588Z,18.88
2023-03-15T10:15:26.411Z,13.38
2023-03-15T10:17:59.188Z,10.88
2023-03-15T10:20:41.585Z,15.23
2023-03-15T10:23:45.527Z,12.70
2023-03-15T10:26:16.024Z,14.23
2023-03-15T10:28:44.196Z,12.07
2023-03-15T10:31:25.979Z,13.75
2023-03-15T10:33:59.781Z,14.50
2023-03-15T10:36:27.178Z,9.52
2023-03-15T10:38:54.560Z,14.63
2023-03-15T10:41:40.712Z,9.48
2023-03-15T10:44:13.943Z,10.63
2023-03-15T10:46:41.231Z,11.98
2023-03-15T10:49:09.911Z,17.52
2023-03-15T10:51:47.989Z,9.20
2023-03-15T10:54:23.159Z,10.25
2023-03-15T10:57:06.417Z,14.32
2023-03-15T10:59:35.905Z,8.85
2023-03-15T11:02:11.808Z,10.63
2023-03-15T11:04:43.929Z,16.02
2023-03-15T11:07:13.717Z,15.25
2023-03-15T11:09:45.980Z,10.20
2023-03-15T11:12:21.617Z,12.48
2023-03-15T11:14:58.430Z,11.63
2023-03-15T11:17:29.407Z,7.97
2023-03-15T11:19:59.635Z,13.80
2023-03-15T11:24:58.673Z,17.42
2023-03-15T11:27:28.075Z,12.18
2023-03-15T11:29:58.427Z,15.17
2023-03-15T11:32:29.342Z,10.55
2023-03-15T11:35:24.595Z,10.70
2023-03-15T11:37:58.538Z,14.75
2023-03-15T11:40:33.006Z,13.70
2023-03-15T11:43:03.031Z,14.13
2023-03-15T11:45:42.108Z,15.13
2023-03-15T11:48:36.632Z,14.30
2023-03-15T11:51:04.410Z,11.68
2023-03-15T11:53:37.199Z,12.90
2023-03-15T11:56:21.603Z,8.90
2023-03-15T11:59:08.789Z,11.98
2023-03-15T12:01:36.136Z,15.80
2023-03-15T12:04:24.798Z,16.60
2023-03-15T12:06:57.392Z,14.88
2023-03-15T12:09:52.633Z,11.27
2023-03-15T12:12:25.523Z,10.32
2023-03-15T12:15:20.260Z,14.73
2023-03-15T12:17:51.497Z,12.50
2023-03-15T12:20:21.741Z,14.23
2023-03-15T12:25:48.964Z,14.02
2023-03-15T12:28:30.525Z,13.15
2023-03-15T12:31:02.110Z,8.93
2023-03-15T12:33:32.421Z,13.48
2023-03-15T12:36:09.523Z,9.65
2023-03-15T12:38:39.356Z,12.93
2023-03-15T12:41:30.053Z,11.07
2023-03-15T12:44:32.070Z,11.27
2023-03-15T12:47:01.124Z,10.27
2023-03-15T12:49:57.299Z,11.90
2023-03-15T12:52:43.352Z,10.88
2023-03-15T12:55:10.337Z,16.55
2023-03-15T12:57:46.790Z,8.20
2023-03-15T13:00:23.308Z,13.25
2023-03-15T13:03:01.898Z,9.85
2023-03-15T13:05:37.699Z,9.23
2023-03-15T13:08:09.517Z,8.70
2023-03-15T13:10:39.300Z,10.00
2023-03-15T13:13:18.218Z,13.13
2023-03-15T13:16:22.733Z,11.35
2023-03-15T13:19:05.530Z,11.07
2023-03-15T13:21:40.020Z,11.20
2023-03-15T13:24:17.361Z,9.90
2023-03-15T13:26:55.585Z,9.95
2023-03-15T13:29:31.580Z,11.02
2023-03-15T13:32:09.498Z,6.93
2023-03-15T13:34:36.863Z,9.13
2023-03-15T13:37:04.426Z,8.45
2023-03-15T13:39:34.359Z,11.23
2023-03-15T13:42:16.713Z,8.55
2023-03-15T13:44:44.157Z,9.57
2023-03-15T13:47:22.101Z,8.05
2023-03-15T13:49:53.052Z,8.23
2023-03-15T13:52:20.753Z,12.30
2023-03-15T13:54:48.385Z,11.25
2023-03-15T13:57:23.724Z,12.07
2023-03-15T14:00:00.756Z,7.15
2023-03-15T14:02:38.047Z,14.93
2023-03-15T14:05:14.849Z,10.65
2023-03-15T14:07:45.979Z,10.30
2023-03-15T14:10:19.279Z,9.77
2023-03-15T14:12:46.851Z,13.95
2023-03-15T14:15:24.229Z,12.80
2023-03-15T14:18:01.117Z,14.00
2023-03-15T14:20:36.556Z,10.80
2023-03-15T14:23:05.076Z,13.77
2023-03-15T14:25:36.498Z,9.45
2023-03-15T14:28:05.715Z,12.65
2023-03-15T14:30:38.077Z,11.18
2023-03-15T14:33:09.019Z,8.25
2023-03-15T14:35:36.033Z,9.40
2023-03-15T14:38:23.686Z,11.52
2023-03-15T14:40:52.207Z,9.70
2023-03-15T14:43:19.750Z,13.52
2023-03-15T14:45:48.913Z,12.88
2023-03-15T14:48:29.220Z,13.13
2023-03-15T14:50:56.717Z,10.68
2023-03-15T14:53:26.953Z,10.60
2023-03-15T14:55:54.120Z,8.45
2023-03-15T14:58:22.788Z,7.40
2023-03-15T15:00:53.586Z,9.50
2023-03-15T15:03:29.753Z,11.65
2023-03-15T15:05:57.048Z,8.52
2023-03-15T15:08:24.223Z,8.32
2023-03-15T15:10:53.694Z,9.68
2023-03-15T15:13:24.602Z,9.50
2023-03-15T15:15:56.201Z,13.05
2023-03-15T15:18:29.227Z,10.27
2023-03-15T15:20:58.670Z,9.15
2023-03-15T15:23:57.531Z,6.23
2023-03-15T15:26:27.405Z,7.00
2023-03-15T15:28:55.403Z,10.88
2023-03-15T15:31:24.519Z,7.18
2023-03-15T15:33:53.047Z,3.58
2023-03-15T15:36:26.018Z,6.55
2023-03-15T15:38:53.317Z,5.53
2023-03-15T15:41:25.661Z,8.30
2023-03-15T15:43:52.984Z,5.05
2023-03-15T15:46:20.170Z,6.07
2023-03-15T15:48:47.319Z,10.38
2023-03-15T15:51:28.038Z,5.55
2023-03-15T15:53:58.187Z,8.65
2023-03-15T15:56:44.436Z,10.38
2023-03-15T15:59:15.097Z,5.85
2023-03-15T16:01:59.057Z,9.32
2023-03-15T16:04:27.355Z,6.82
2023-03-15T16:07:03.783Z,8.70
2023-03-15T16:09:36.281Z,6.30
2023-03-15T16:12:11.511Z,7.53
2023-03-15T16:14:38.577Z,8.93
2023-03-15T16:17:16.627Z,7.00
2023-03-15T16:19:43.870Z,6.15
2023-03-15T16:22:11.262Z,10.00
2023-03-15T16:24:39.862Z,5.93
2023-03-15T16:27:08.595Z,7.68
2023-03-15T16:29:38.034Z,8.35
2023-03-15T16:32:17.664Z,6.30
2023-03-15T16:34:54.738Z,6.22
2023-03-15T16:37:29.089Z,7.32
2023-03-15T16:39:56.236Z,9.90
2023-03-15T16:42:25.777Z,7.53
2023-03-15T16:44:53.715Z,7.13
2023-03-15T16:47:21.364Z,12.27
2023-03-15T16:49:48.429Z,9.63
2023-03-15T16:52:17.293Z,10.68
2023-03-15T16:54:47.722Z,6.53
2023-03-15T16:57:22.110Z,9.18
2023-03-15T16:59:49.804Z,11.48
2023-03-15T17:02:28.989Z,12.85
2023-03-15T17:04:56.063Z,9.43
2023-03-15T17:07:30.012Z,10.25
2023-03-15T17:09:57.552Z,11.48
2023-03-15T17:12:29.322Z,9.70
2023-03-15T17:14:59.499Z,13.20
2023-03-15T17:17:28.669Z,11.18
2023-03-15T17:19:56.298Z,9.48
2023-03-15T17:22:25.409Z,9.27
2023-03-15T17:24:52.926Z,9.88
2023-03-15T17:27:26.432Z,11.93
2023-03-15T17:29:53.558Z,12.20
2023-03-15T17:32:20.725Z,10.70
2023-03-15T17:34:48.043Z,12.55
2023-03-15T17:37:16.706Z,13.88
2023-03-15T17:39:45.220Z,13.18
2023-03-15T17:42:15.691Z,15.18
2023-03-15T17:44:42.916Z,14.68
2023-03-15T17:47:13.593Z,14.70
2023-03-15T17:49:41.109Z,20.13
2023-03-15T17:52:18.670Z,23.17
2023-03-15T17:54:46.515Z,20.60
2023-03-15T17:57:13.621Z,19.85
2023-03-15T17:59:40.861Z,21.05
2023-03-15T18:02:17.784Z,20.83
2023-03-15T18:04:45.044Z,19.90
2023-03-15T18:07:12.419Z,43.58
2023-03-15T18:09:40.073Z,40.63
2023-03-15T18:12:12.802Z,30.40
2023-03-15T18:14:40.812Z,29.20
2023-03-15T18:17:08.092Z,30.73
2023-03-15T18:19:35.190Z,26.83
2023-03-15T18:22:02.665Z,24.20
2023-03-15T18:24:29.776Z,26.35
2023-03-15T18:26:56.956Z,25.38
2023-03-15T18:29:23.985Z,29.00
2023-03-15T18:31:51.048Z,25.25
2023-03-15T18:34:22.117Z,25.65
2023-03-15T18:36:49.423Z,25.73
2023-03-15T18:39:16.613Z,26.77
2023-03-15T18:41:43.651Z,24.10
2023-03-15T18:44:11.436Z,33.10
2023-03-15T18:46:38.552Z,25.52
2023-03-15T18:49:06.117Z,26.25
2023-03-15T18:51:33.196Z,22.58
2023-03-15T18:54:00.315Z,20.65
2023-03-15T18:56:34.536Z,22.70
2023-03-15T18:59:02.514Z,23.45
2023-03-15T19:01:29.855Z,24.05
2023-03-15T19:03:57.307Z,23.67
2023-03-15T19:06:24.418Z,20.05
2023-03-15T19:08:54.417Z,21.00
2023-03-15T19:11:24.120Z,20.40
2023-03-15T19:13:51.523Z,20.20
2023-03-15T19:16:22.322Z,20.25
2023-03-15T19:18:51.821Z,25.50
2023-03-15T19:21:19.938Z,20.25
2023-03-15T19:23:47.578Z,25.25
2023-03-15T19:26:14.933Z,20.67
2023-03-15T19:28:42.418Z,19.95
2023-03-15T19:31:09.735Z,19.13
2023-03-15T19:33:37.102Z,21.58
2023-03-15T19:36:04.756Z,18.90
2023-03-15T19:38:31.815Z,19.80
2023-03-15T19:41:03.912Z,17.95
2023-03-15T19:43:31.160Z,23.50
2023-03-15T19:45:58.560Z,25.75
2023-03-15T19:48:25.931Z,17.60
2023-03-15T19:50:53.141Z,23.27
2023-03-15T19:53:20.092Z,22.38
2023-03-15T19:55:47.147Z,18.50
2023-03-15T19:58:14.794Z,21.65
2023-03-15T20:00:41.954Z,26.27
2023-03-15T20:03:09.156Z,25.73
2023-03-15T20:05:37.846Z,23.67
2023-03-15T20:08:05.236Z,21.20
2023-03-15T20:10:32.446Z,22.52
2023-03-15T20:12:59.502Z,18.25
2023-03-15T20:15:28.235Z,17.67
2023-03-15T20:17:56.346Z,21.20
2023-03-15T20:20:23.922Z,18.52
2023-03-15T20:22:51.312Z,19.08
2023-03-15T20:25:20.306Z,17.42
2023-03-15T20:27:48.130Z,19.88
2023-03-15T20:30:17.159Z,17.48
2023-03-15T20:32:44.650Z,17.02
2023-03-15T20:35:12.396Z,20.58
2023-03-15T20:37:40.883Z,18.33
2023-03-15T20:40:11.781Z,24.20
2023-03-15T20:42:39.209Z,26.15
2023-03-15T20:45:07.494Z,20.75
2023-03-15T20:47:34.771Z,22.13
2023-03-15T20:50:03.420Z,20.23
2023-03-15T20:52:32.340Z,23.10
2023-03-15T20:54:59.869Z,16.48
2023-03-15T20:57:27.232Z,17.95
2023-03-15T20:59:54.436Z,15.90
2023-03-15T21:02:22.889Z,19.45
2023-03-15T21:04:50.151Z,18.05
2023-03-15T21:07:17.377Z,19.55
2023-03-15T21:09:44.502Z,21.05
2023-03-15T21:12:11.752Z,16.50
2023-03-15T21:14:38.818Z,22.42
2023-03-15T21:17:05.815Z,18.60
2023-03-15T21:19:33.032Z,18.33
2023-03-15T21:22:01.111Z,16.70
2023-03-15T21:24:32.537Z,18.70
2023-03-15T21:27:06.459Z,15.70
2023-03-15T21:29:34.240Z,18.23
2023-03-15T21:32:02.564Z,17.77
2023-03-15T21:34:29.671Z,20.17
2023-03-15T21:36:56.938Z,19.55
2023-03-15T21:39:24.289Z,18.67
2023-03-15T21:41:51.286Z,21.67
2023-03-15T21:44:18.365Z,20.60
2023-03-15T21:46:45.742Z,21.13
2023-03-15T21:49:12.950Z,20.40
2023-03-15T21:51:40.007Z,20.10
2023-03-15T21:54:07.140Z,21.48
2023-03-15T21:56:34.161Z,20.40
2023-03-15T21:59:01.866Z,21.58
2023-03-15T22:01:29.067Z,19.42
2023-03-15T22:03:56.187Z,22.23
2023-03-15T22:06:23.434Z,23.20
2023-03-15T22:08:50.816Z,21.58
2023-03-15T22:11:17.805Z,19.63
2023-03-15T22:13:45.438Z,21.35
2023-03-15T22:16:12.886Z,20.45
2023-03-15T22:18:41.079Z,21.42
2023-03-15T22:21:08.229Z,19.67
2023-03-15T22:23:35.319Z,19.83
2023-03-15T22:26:02.433Z,20.60
2023-03-15T22:28:29.493Z,21.65
2023-03-15T22:30:56.726Z,24.00
2023-03-15T22:33:23.869Z,22.20
2023-03-15T22:35:58.618Z,24.08
2023-03-15T22:38:26.414Z,23.20
2023-03-15T22:41:05.532Z,20.17
2023-03-15T22:43:32.736Z,24.75
2023-03-15T22:46:00.051Z,27.55
2023-03-15T22:48:28.048Z,25.55
2023-03-15T22:51:02.716Z,24.08
2023-03-15T22:53:30.181Z,26.33
2023-03-15T22:55:57.759Z,24.10
2023-03-15T22:58:25.448Z,23.75
2023-03-15T23:00:52.516Z,27.83
2023-03-15T23:03:19.671Z,27.15
2023-03-15T23:05:47.053Z,24.92
2023-03-15T23:08:14.098Z,22.48
2023-03-15T23:10:42.209Z,23.65
2023-03-15T23:13:09.777Z,22.52
2023-03-15T23:15:37.088Z,22.33
2023-03-15T23:18:05.536Z,22.92
2023-03-15T23:20:33.779Z,19.35
2023-03-15T23:23:00.949Z,21.27
2023-03-15T23:25:31.136Z,22.90
2023-03-15T23:30:25.639Z,22.30
2023-03-15T23:32:57.783Z,25.65
2023-03-15T23:35:25.593Z,22.67
2023-03-15T23:37:53.287Z,22.33
2023-03-15T23:40:21.543Z,25.40
2023-03-15T23:42:52.718Z,21.02
2023-03-15T23:45:19.831Z,26.83
2023-03-15T23:47:47.120Z,23.95
2023-03-15T23:50:14.518Z,21.35
2023-03-15T23:52:41.829Z,24.02
2023-03-15T23:55:10.110Z,24.10
2023-03-15T23:57:37.492Z,27.27
